Kilmarnock, Virginia
Current Conditions -  °F | °C
As of 7:55 PM on Monday 26 Jan 2015 (Local Time) from KW75 Reporting Station
Overcast Overcast  
Wind Chill: 27°   Ceiling: 800
Heat Index: 36°   Visibility: 10mi
Dew Point: 33°   Wind: 13mph
Humidity: 90%   Direction: 340°NNW
Pressure: 29.64"   Gusts: 20mph
Location:  37.71°N, 76.38°W
Report Text: KW75 270055Z AUTO 34011G17KT 10SM OVC008 02/01 A2964 RMK AO1 T00210006
Loading
Personal Weather Stations






























Interactive Weather Map New forecast layout! Learn more

10-Day Weather Forecast

Advertisements
Track Severe Weather on mobile